Aérodrome :
LOGIN :

S'inscrire | Disclaimer

   EN    FR    IT 

 










Légende :    VFR   VFR Marginal   IFR   IFR Intensif   IFR Très Intensif
Visi : 
Plafond : 
>= 8 km
>= 3000ft
5 à 8 km
1000 à 3000 ft
1500m à 5 km
500 à 1000 ft
800 à 1500m
200 à 500 ft
< 800m
< 200 ft
Symboles :   Orages  Brouillard  Fortes neiges  Fortes précipitations  Vent > 20 kt
SIGMETs :   Divers  Orages  Givrage  Turbulence  Onde Orograph.  Cendres Volcan.







- Altitude de l'aérodrome : 209 ft
- Code IATA : CLY
- Voir les cartes d'approche


LFKC - Calvi

DERNIER METAR :
  • 191030Z AUTO 34004KT 290V360 CAVOK 22/14 Q1015 NOSIG

METARs EXPIRÉS :
  • 191000Z AUTO 34004KT 290V030 CAVOK 23/14 Q1016 NOSIG
  • 190930Z AUTO 01006KT 340V040 CAVOK 22/15 Q1015 NOSIG
  • 190900Z AUTO VRB02KT CAVOK 23/15 Q1015 NOSIG
  • 190830Z AUTO VRB03KT CAVOK 22/13 Q1015 NOSIG
  • 190800Z AUTO VRB02KT CAVOK 21/07 Q1015 NOSIG

TAF TAF LFKC
Valide du 19 à 09h jusqu'au 20 à 09h UTC


190800Z 1909/2009 34006KT CAVOK
BECMG 1917/1920 20006KT TX25/1913Z TN14/2004Z
ATIS : +33 4 95 65 82 49
Pas de NOTAMs connus pour ce terrain.
3 SIGMETs publiés pour la FIR Marseille (LFMM) :
 
Annulation du SIGMET 7 
LFMM SIGMET 9 VALID 191025/191200 LFPW
LFMM MARSEILLE FIR/UIR CNL SIGMET 7 191000/191200=
Orages noyés dans la masse
LFMM SIGMET 8 VALID 191025/191200 LFPW
LFMM MARSEILLE FIR/UIR EMBD TS OBS WI N3900 E00600 - N3900 E00430 - N4200 E00430 - N4215 E00245 - N4345 E00245 - N4315 E00445 - N4045 E00600 TOP FL360 STNR NC=
SIGMET 7  ANNULÉ :
Orages noyés dans la masse
LFMM SIGMET 7 VALID 191000/191200 LFPW
LFMM MARSEILLE FIR/UIR EMBD TS OBS WI N3900 E00600 - N3900 E00430 - N4200 E00430 - N4215 E00315 - N4230 E00315 - N4215 E00445 - N4045 E00600 TOP FL360 STNR NC=



MET'MAP, la Météo Aéronautique d'un coup d'oeil ! - Copyright ORBIFLY Décembre 2007 - Disclaimer

ORBIFLY MET'MAP TEAM :

Programmation & Développement : Alexandra Zaïnal
Conception & Développement : Baudouin d'Aumeries
Co-Programmation & Développement : Marc-Olivier Méhu
Soutien technique & logistique : Manuel Goepfert

Contact : metmap@orbifly.com




SOURCES & CREDITS :

   NOAA